首页
METAR-TAF:

METAR-TAF

机场 :

Big Piney / Marbleton, 怀俄明州, 美国

纬度: 42-34-44N, 经度: 110-06-11W, 海拔: 2126米

当前天气观测

该预报发布于34分钟前的02:53 UTC
风速8节,风向北转西北
温度 16°C
湿度 42%
气压 1019 hPa
能見度: 16.1公里
天空无云

METAR: KBPI 010253Z AUTO 34008KT 10SM CLR 16/03 A3010 RMK AO2 SLP109 T01560033 50001

时间: 21:27 (03:27 UTC)

预报

该预报发布于4小时和2分钟前的23:25 UTC
预报有效从01日的 00点(UTC)到 01日的 24点(UTC)
风速20节,风向西,有时为28节阵风
能見度: 10公里
少量云层高于11000英尺
从 01日的 0200点(UTC)
风速7节,风向北转西北
能見度: 10公里
天空无云
从 01日的 0600点(UTC)
风速5节,风向多变
能見度: 10公里
散云层高于15000英尺
从 01日的 1700点(UTC)
风速11节,风向南转西南
能見度: 10公里
少量云层高于10000英尺
从 01日的 1900点(UTC)
风速20节,风向西转西南,有时为28节阵风
能見度: 10公里
少量云层高于11000英尺

TAF: KBPI 312325Z 0100/0124 26020G28KT P6SM FEW110 FM010200 33007KT P6SM SKC FM010600 VRB05KT P6SM SCT150 FM011700 20011KT P6SM FEW100 FM011900 25020G28KT P6SM FEW110

超过4000个机场的气象观测和天气预报(METAR&TAF报告)。

可查询的气象台以黄色和红色小点在地图上表示。

将鼠标移到小点上方,可查看气象台名称。

然后点击查看天气观测和预报。

如需切换地图:点击带黑十字的绿色按钮放大地图;点击带横线的绿色按钮缩小地图;或者点击绿色箭头查看邻近地区的地图。


METAR-TAF: